To NAV CANADA Home Page Login to a new session Search on AWWS site Disclaimer Vers la page française équivalente Tips FAQ What's new on the site To the Forecasts and Observations / NOTAM section To "File a Flight Plan" website Publications and other links Update of the User's profile FIC Telephone Numbers My Weather Data Folder Route Weather Data Regional Weather Data Local Weather Data To the Forecasts and Observations / NOTAM section
Request Generated 01/18/2019 at 01:55:34 UTC . Weather information available at that time is displayed.


Go to a specific product

Save this request - Inactive

METAR/TAF

OTTAWA/GATINEAU/QC    

METAR CYND 180100Z 08006KT 15SM SCT120 BKN140 BKN210 M17/M22 A3026 RMK AC3AC4CI1 CI TR SLP257=
METAR CYND 180000Z 06004KT 15SM BKN120 OVC220 M16/M22 A3028 RMK AC6CI2 SLP264=
METAR CYND 172300Z CCA 08003KT 15SM BKN110 BKN150 OVC220 M17/M21 A3030 RMK AC5AS2CI1 SLP268=
METAR CYND 172300Z 08003KT 15SM BKN110 BKN150 OVC220 M17/M21 A3030 RMK AC5AC2CI1 SLP268=

TAF CYND 172342Z 1800/1802 08005KT P6SM BKN100 OVC150
RMK NXT FCST WILL BE ISSUED AT 181345Z=

OTTAWA/MACDONALD-CARTIER INTL/ON    

METAR CYOW 180100Z 05009KT 15SM FEW120 BKN140 M16/M22 A3022 RMK AC2AC5 PRESFR SLP249=
METAR CYOW 180000Z 07006KT 15SM SCT120 BKN140 BKN220 M16/M22 A3026 RMK AC4AC2CI1 SLP260=
METAR CYOW 172300Z 07006KT 15SM BKN120 OVC150 M16/M21 A3027 RMK AC7AS1 SLP265=

TAF CYOW 172342Z 1800/1824 07007KT P6SM BKN120 OVC150
FM180800 06008KT 2SM -SN OVC015
BECMG 1815/1817 30008KT
FM181800 30008KT P6SM BKN015
FM182000 30008KT P6SM FEW020
RMK NXT FCST BY 180300Z=


GRAPHICAL FA CLOUDS & WEATHER FORECASTS
To the Product Selector
Graphical FA gfacn33      

GRAPHICAL FA ICING, TURBULENCE & FREEZING LEVEL FORECASTS
To the Product Selector
Graphical FA gfacn33      

FDTEXT Low Level FD. Temperatures are not forecast for the 3,000-foot level.
To the Product Selector
STN YOW - OTTAWA. ONT for use 3000 6000 9000 12000 18000
FDCN01 CWAO FCST BASED ON 171200 DATA VALID 171800 17-21 2710 2723-16 2936-18 2850-21 2770-28
FDCN02 CWAO FCST BASED ON 171200 DATA VALID 180000 21-06 2010 2428-14 2636-17 2645-20 2755-28
FDCN03 CWAO FCST BASED ON 171200 DATA VALID 181200 06-17 2427 2523-13 2646-15 2653-20 2755-30



Your time UTC time
Weather data provided by Environment Canada and NAV CANADA